sensor_id;sensor_type;location;lat;lon;timestamp;P1;durP1;ratioP1;P2;durP2;ratioP2
74100;SDS011;62462;52.530;21.682;2022-11-27T00:01:47;56.45;;;23.60;;
74100;SDS011;62462;52.530;21.682;2022-11-27T00:04:13;48.37;;;19.63;;
74100;SDS011;62462;52.530;21.682;2022-11-27T00:06:39;35.30;;;15.67;;
74100;SDS011;62462;52.530;21.682;2022-11-27T00:09:07;38.40;;;16.20;;
74100;SDS011;62462;52.530;21.682;2022-11-27T00:11:37;32.83;;;12.50;;
74100;SDS011;62462;52.530;21.682;2022-11-27T00:14:06;33.45;;;13.18;;
74100;SDS011;62462;52.530;21.682;2022-11-27T00:16:34;34.03;;;13.43;;
74100;SDS011;62462;52.530;21.682;2022-11-27T00:19:00;30.80;;;13.00;;
74100;SDS011;62462;52.530;21.682;2022-11-27T00:21:27;30.80;;;12.87;;
74100;SDS011;62462;52.530;21.682;2022-11-27T00:23:55;36.97;;;14.47;;
74100;SDS011;62462;52.530;21.682;2022-11-27T00:26:22;42.20;;;15.80;;
74100;SDS011;62462;52.530;21.682;2022-11-27T00:28:49;35.57;;;13.37;;
74100;SDS011;62462;52.530;21.682;2022-11-27T00:31:16;31.77;;;12.27;;
74100;SDS011;62462;52.530;21.682;2022-11-27T00:33:44;31.40;;;13.37;;
74100;SDS011;62462;52.530;21.682;2022-11-27T00:36:10;30.33;;;12.90;;
74100;SDS011;62462;52.530;21.682;2022-11-27T00:38:37;33.43;;;14.63;;
74100;SDS011;62462;52.530;21.682;2022-11-27T00:41:06;37.00;;;15.57;;
74100;SDS011;62462;52.530;21.682;2022-11-27T00:43:36;34.63;;;14.07;;
74100;SDS011;62462;52.530;21.682;2022-11-27T00:46:02;36.47;;;14.87;;
74100;SDS011;62462;52.530;21.682;2022-11-27T00:48:28;38.20;;;14.33;;
74100;SDS011;62462;52.530;21.682;2022-11-27T00:51:01;38.77;;;14.60;;
74100;SDS011;62462;52.530;21.682;2022-11-27T00:53:29;35.00;;;13.67;;
74100;SDS011;62462;52.530;21.682;2022-11-27T00:55:55;34.60;;;13.80;;
74100;SDS011;62462;52.530;21.682;2022-11-27T00:58:21;33.83;;;14.93;;
74100;SDS011;62462;52.530;21.682;2022-11-27T01:00:58;32.20;;;13.43;;
74100;SDS011;62462;52.530;21.682;2022-11-27T01:03:27;35.13;;;13.97;;
74100;SDS011;62462;52.530;21.682;2022-11-27T01:05:53;36.27;;;14.93;;
74100;SDS011;62462;52.530;21.682;2022-11-27T01:08:19;33.33;;;13.83;;
74100;SDS011;62462;52.530;21.682;2022-11-27T01:10:49;30.23;;;12.97;;
74100;SDS011;62462;52.530;21.682;2022-11-27T01:13:24;34.83;;;14.90;;
74100;SDS011;62462;52.530;21.682;2022-11-27T01:15:58;31.43;;;12.47;;
74100;SDS011;62462;52.530;21.682;2022-11-27T01:18:24;33.53;;;13.43;;
74100;SDS011;62462;52.530;21.682;2022-11-27T01:20:53;30.13;;;12.30;;
74100;SDS011;62462;52.530;21.682;2022-11-27T01:23:19;30.55;;;12.07;;
74100;SDS011;62462;52.530;21.682;2022-11-27T01:25:46;32.17;;;12.83;;
74100;SDS011;62462;52.530;21.682;2022-11-27T01:28:13;29.73;;;12.73;;
74100;SDS011;62462;52.530;21.682;2022-11-27T01:30:39;30.43;;;12.27;;
74100;SDS011;62462;52.530;21.682;2022-11-27T01:33:05;27.87;;;11.43;;
74100;SDS011;62462;52.530;21.682;2022-11-27T01:35:31;27.97;;;11.50;;
74100;SDS011;62462;52.530;21.682;2022-11-27T01:37:57;27.37;;;12.17;;
74100;SDS011;62462;52.530;21.682;2022-11-27T01:40:23;31.50;;;13.13;;
74100;SDS011;62462;52.530;21.682;2022-11-27T01:42:49;33.50;;;12.97;;
74100;SDS011;62462;52.530;21.682;2022-11-27T01:45:15;32.60;;;12.70;;
74100;SDS011;62462;52.530;21.682;2022-11-27T01:47:44;37.40;;;14.07;;
74100;SDS011;62462;52.530;21.682;2022-11-27T01:50:16;32.47;;;13.00;;
74100;SDS011;62462;52.530;21.682;2022-11-27T01:52:48;33.90;;;13.03;;
74100;SDS011;62462;52.530;21.682;2022-11-27T01:55:20;31.17;;;13.23;;
74100;SDS011;62462;52.530;21.682;2022-11-27T01:57:49;32.13;;;11.60;;
74100;SDS011;62462;52.530;21.682;2022-11-27T02:00:18;32.43;;;12.73;;
74100;SDS011;62462;52.530;21.682;2022-11-27T02:02:44;32.33;;;12.23;;
74100;SDS011;62462;52.530;21.682;2022-11-27T02:05:13;29.13;;;11.90;;
74100;SDS011;62462;52.530;21.682;2022-11-27T02:07:43;29.43;;;12.00;;
74100;SDS011;62462;52.530;21.682;2022-11-27T02:10:10;34.07;;;11.63;;
74100;SDS011;62462;52.530;21.682;2022-11-27T02:23:55;25.17;;;10.87;;
74100;SDS011;62462;52.530;21.682;2022-11-27T02:29:25;29.17;;;11.73;;
74100;SDS011;62462;52.530;21.682;2022-11-27T02:34:47;25.20;;;10.83;;
74100;SDS011;62462;52.530;21.682;2022-11-27T02:37:35;24.57;;;10.73;;
74100;SDS011;62462;52.530;21.682;2022-11-27T02:40:22;29.33;;;11.43;;
74100;SDS011;62462;52.530;21.682;2022-11-27T02:42:58;25.27;;;9.83;;
74100;SDS011;62462;52.530;21.682;2022-11-27T02:45:47;23.80;;;10.30;;
74100;SDS011;62462;52.530;21.682;2022-11-27T02:48:15;23.37;;;9.57;;
74100;SDS011;62462;52.530;21.682;2022-11-27T02:50:44;25.57;;;10.97;;
74100;SDS011;62462;52.530;21.682;2022-11-27T02:53:13;25.73;;;9.57;;
74100;SDS011;62462;52.530;21.682;2022-11-27T02:55:46;28.17;;;11.50;;
74100;SDS011;62462;52.530;21.682;2022-11-27T02:58:15;25.07;;;10.70;;
74100;SDS011;62462;52.530;21.682;2022-11-27T03:00:45;24.33;;;9.73;;
74100;SDS011;62462;52.530;21.682;2022-11-27T03:03:12;27.80;;;10.77;;
74100;SDS011;62462;52.530;21.682;2022-11-27T03:05:41;30.33;;;10.93;;
74100;SDS011;62462;52.530;21.682;2022-11-27T03:08:13;27.50;;;10.80;;
74100;SDS011;62462;52.530;21.682;2022-11-27T03:11:07;29.93;;;11.80;;
74100;SDS011;62462;52.530;21.682;2022-11-27T03:13:36;33.60;;;12.87;;
74100;SDS011;62462;52.530;21.682;2022-11-27T03:24:17;30.20;;;12.00;;
74100;SDS011;62462;52.530;21.682;2022-11-27T03:26:43;33.97;;;13.40;;
74100;SDS011;62462;52.530;21.682;2022-11-27T03:29:22;35.53;;;13.43;;
74100;SDS011;62462;52.530;21.682;2022-11-27T03:31:55;33.17;;;11.43;;
74100;SDS011;62462;52.530;21.682;2022-11-27T03:34:22;33.60;;;11.93;;
74100;SDS011;62462;52.530;21.682;2022-11-27T03:36:48;30.37;;;13.33;;
74100;SDS011;62462;52.530;21.682;2022-11-27T03:39:13;30.33;;;12.67;;
74100;SDS011;62462;52.530;21.682;2022-11-27T04:00:52;38.90;;;14.27;;
74100;SDS011;62462;52.530;21.682;2022-11-27T04:03:23;36.90;;;14.00;;
74100;SDS011;62462;52.530;21.682;2022-11-27T04:05:51;36.73;;;14.73;;
74100;SDS011;62462;52.530;21.682;2022-11-27T04:08:17;35.90;;;14.03;;
74100;SDS011;62462;52.530;21.682;2022-11-27T04:10:43;35.97;;;13.23;;
74100;SDS011;62462;52.530;21.682;2022-11-27T04:13:08;36.63;;;13.33;;
74100;SDS011;62462;52.530;21.682;2022-11-27T04:15:34;45.67;;;17.40;;
74100;SDS011;62462;52.530;21.682;2022-11-27T04:18:00;48.43;;;17.13;;
74100;SDS011;62462;52.530;21.682;2022-11-27T04:20:25;44.53;;;18.30;;
74100;SDS011;62462;52.530;21.682;2022-11-27T04:22:53;44.27;;;16.50;;
74100;SDS011;62462;52.530;21.682;2022-11-27T04:25:18;43.70;;;18.30;;
74100;SDS011;62462;52.530;21.682;2022-11-27T04:27:44;50.03;;;17.87;;
74100;SDS011;62462;52.530;21.682;2022-11-27T04:30:10;49.13;;;17.80;;
74100;SDS011;62462;52.530;21.682;2022-11-27T04:32:36;51.17;;;18.03;;
74100;SDS011;62462;52.530;21.682;2022-11-27T04:35:02;56.13;;;20.60;;
74100;SDS011;62462;52.530;21.682;2022-11-27T04:37:28;56.90;;;18.90;;
74100;SDS011;62462;52.530;21.682;2022-11-27T04:39:54;55.00;;;20.00;;
74100;SDS011;62462;52.530;21.682;2022-11-27T04:42:20;57.60;;;20.67;;
74100;SDS011;62462;52.530;21.682;2022-11-27T04:44:45;62.53;;;21.07;;
74100;SDS011;62462;52.530;21.682;2022-11-27T04:47:11;54.50;;;20.17;;
74100;SDS011;62462;52.530;21.682;2022-11-27T04:49:37;65.00;;;22.20;;
74100;SDS011;62462;52.530;21.682;2022-11-27T04:52:02;62.30;;;20.33;;
74100;SDS011;62462;52.530;21.682;2022-11-27T04:54:28;60.27;;;20.13;;
74100;SDS011;62462;52.530;21.682;2022-11-27T04:56:54;64.13;;;22.83;;
74100;SDS011;62462;52.530;21.682;2022-11-27T04:59:20;66.97;;;22.77;;
74100;SDS011;62462;52.530;21.682;2022-11-27T05:01:46;61.50;;;22.10;;
74100;SDS011;62462;52.530;21.682;2022-11-27T05:04:12;58.73;;;21.13;;
74100;SDS011;62462;52.530;21.682;2022-11-27T05:06:38;68.37;;;23.20;;
74100;SDS011;62462;52.530;21.682;2022-11-27T05:09:04;71.07;;;24.10;;
74100;SDS011;62462;52.530;21.682;2022-11-27T05:11:30;58.80;;;20.47;;
74100;SDS011;62462;52.530;21.682;2022-11-27T05:13:56;65.23;;;22.40;;
74100;SDS011;62462;52.530;21.682;2022-11-27T05:16:48;56.60;;;20.47;;
74100;SDS011;62462;52.530;21.682;2022-11-27T05:19:17;57.60;;;20.07;;
74100;SDS011;62462;52.530;21.682;2022-11-27T05:21:44;53.60;;;21.40;;
74100;SDS011;62462;52.530;21.682;2022-11-27T05:24:10;66.93;;;22.87;;
74100;SDS011;62462;52.530;21.682;2022-11-27T05:26:37;59.97;;;21.57;;
74100;SDS011;62462;52.530;21.682;2022-11-27T05:29:03;64.07;;;22.50;;
74100;SDS011;62462;52.530;21.682;2022-11-27T05:31:29;65.20;;;23.13;;
74100;SDS011;62462;52.530;21.682;2022-11-27T05:33:55;69.13;;;22.57;;
74100;SDS011;62462;52.530;21.682;2022-11-27T05:36:21;57.50;;;20.90;;
74100;SDS011;62462;52.530;21.682;2022-11-27T05:38:47;64.67;;;23.03;;
74100;SDS011;62462;52.530;21.682;2022-11-27T05:41:12;74.17;;;24.40;;
74100;SDS011;62462;52.530;21.682;2022-11-27T05:43:38;70.50;;;22.83;;
74100;SDS011;62462;52.530;21.682;2022-11-27T05:46:07;72.40;;;25.10;;
74100;SDS011;62462;52.530;21.682;2022-11-27T05:48:35;66.50;;;22.93;;
74100;SDS011;62462;52.530;21.682;2022-11-27T05:51:01;69.07;;;23.93;;
74100;SDS011;62462;52.530;21.682;2022-11-27T05:53:27;77.47;;;27.07;;
74100;SDS011;62462;52.530;21.682;2022-11-27T05:55:53;74.27;;;27.33;;
74100;SDS011;62462;52.530;21.682;2022-11-27T05:58:24;81.20;;;33.27;;
74100;SDS011;62462;52.530;21.682;2022-11-27T06:00:50;72.90;;;24.13;;
74100;SDS011;62462;52.530;21.682;2022-11-27T06:03:16;76.13;;;29.40;;
74100;SDS011;62462;52.530;21.682;2022-11-27T06:05:41;90.30;;;39.40;;
74100;SDS011;62462;52.530;21.682;2022-11-27T06:08:07;67.40;;;23.60;;
74100;SDS011;62462;52.530;21.682;2022-11-27T06:10:33;68.00;;;24.37;;
74100;SDS011;62462;52.530;21.682;2022-11-27T06:12:58;62.37;;;24.40;;
74100;SDS011;62462;52.530;21.682;2022-11-27T06:15:24;74.90;;;25.57;;
74100;SDS011;62462;52.530;21.682;2022-11-27T06:17:50;65.90;;;22.03;;
74100;SDS011;62462;52.530;21.682;2022-11-27T06:20:16;73.33;;;24.73;;
74100;SDS011;62462;52.530;21.682;2022-11-27T06:22:41;68.93;;;23.17;;
74100;SDS011;62462;52.530;21.682;2022-11-27T06:25:07;75.10;;;23.00;;
74100;SDS011;62462;52.530;21.682;2022-11-27T06:27:33;66.97;;;22.70;;
74100;SDS011;62462;52.530;21.682;2022-11-27T06:30:01;68.03;;;25.47;;
74100;SDS011;62462;52.530;21.682;2022-11-27T06:32:28;62.50;;;21.93;;
74100;SDS011;62462;52.530;21.682;2022-11-27T06:34:54;64.13;;;21.60;;
74100;SDS011;62462;52.530;21.682;2022-11-27T06:37:20;68.73;;;22.67;;
74100;SDS011;62462;52.530;21.682;2022-11-27T06:39:48;63.87;;;22.50;;
74100;SDS011;62462;52.530;21.682;2022-11-27T06:42:14;75.37;;;24.37;;
74100;SDS011;62462;52.530;21.682;2022-11-27T06:44:40;74.50;;;24.70;;
74100;SDS011;62462;52.530;21.682;2022-11-27T06:47:06;69.93;;;24.60;;
74100;SDS011;62462;52.530;21.682;2022-11-27T06:49:32;60.83;;;22.27;;
74100;SDS011;62462;52.530;21.682;2022-11-27T06:51:58;67.37;;;25.63;;
74100;SDS011;62462;52.530;21.682;2022-11-27T06:54:24;88.43;;;30.77;;
74100;SDS011;62462;52.530;21.682;2022-11-27T06:56:50;78.67;;;26.93;;
74100;SDS011;62462;52.530;21.682;2022-11-27T06:59:16;71.60;;;27.33;;
74100;SDS011;62462;52.530;21.682;2022-11-27T07:01:42;86.57;;;29.93;;
74100;SDS011;62462;52.530;21.682;2022-11-27T07:04:12;70.93;;;26.60;;
74100;SDS011;62462;52.530;21.682;2022-11-27T07:06:39;84.20;;;32.10;;
74100;SDS011;62462;52.530;21.682;2022-11-27T07:09:05;78.73;;;26.67;;
74100;SDS011;62462;52.530;21.682;2022-11-27T07:11:31;91.90;;;32.13;;
74100;SDS011;62462;52.530;21.682;2022-11-27T07:13:58;80.00;;;27.40;;
74100;SDS011;62462;52.530;21.682;2022-11-27T07:16:26;84.20;;;28.47;;
74100;SDS011;62462;52.530;21.682;2022-11-27T07:18:54;78.83;;;26.47;;
74100;SDS011;62462;52.530;21.682;2022-11-27T07:21:22;86.90;;;27.20;;
74100;SDS011;62462;52.530;21.682;2022-11-27T07:23:47;89.50;;;27.57;;
74100;SDS011;62462;52.530;21.682;2022-11-27T07:26:14;77.23;;;24.33;;
74100;SDS011;62462;52.530;21.682;2022-11-27T07:28:45;74.73;;;24.37;;
74100;SDS011;62462;52.530;21.682;2022-11-27T07:31:12;83.87;;;26.03;;
74100;SDS011;62462;52.530;21.682;2022-11-27T07:33:39;79.47;;;24.67;;
74100;SDS011;62462;52.530;21.682;2022-11-27T07:36:06;87.57;;;28.37;;
74100;SDS011;62462;52.530;21.682;2022-11-27T07:38:38;82.97;;;25.37;;
74100;SDS011;62462;52.530;21.682;2022-11-27T07:41:04;74.65;;;25.33;;
74100;SDS011;62462;52.530;21.682;2022-11-27T07:43:31;81.23;;;26.00;;
74100;SDS011;62462;52.530;21.682;2022-11-27T07:45:58;80.28;;;25.25;;
74100;SDS011;62462;52.530;21.682;2022-11-27T07:48:28;84.07;;;26.83;;
74100;SDS011;62462;52.530;21.682;2022-11-27T07:50:54;83.67;;;27.00;;
74100;SDS011;62462;52.530;21.682;2022-11-27T07:53:20;80.50;;;27.20;;
74100;SDS011;62462;52.530;21.682;2022-11-27T07:55:45;77.38;;;24.75;;
74100;SDS011;62462;52.530;21.682;2022-11-27T07:58:11;82.63;;;26.10;;
74100;SDS011;62462;52.530;21.682;2022-11-27T08:00:37;85.70;;;28.05;;
74100;SDS011;62462;52.530;21.682;2022-11-27T08:03:02;77.85;;;25.92;;
74100;SDS011;62462;52.530;21.682;2022-11-27T08:05:28;76.47;;;25.40;;
74100;SDS011;62462;52.530;21.682;2022-11-27T08:07:54;89.97;;;31.47;;
74100;SDS011;62462;52.530;21.682;2022-11-27T08:10:20;92.32;;;30.08;;
74100;SDS011;62462;52.530;21.682;2022-11-27T08:12:45;89.43;;;29.47;;
74100;SDS011;62462;52.530;21.682;2022-11-27T08:15:11;88.20;;;27.70;;
74100;SDS011;62462;52.530;21.682;2022-11-27T08:17:38;91.23;;;29.90;;
74100;SDS011;62462;52.530;21.682;2022-11-27T08:20:04;102.03;;;31.80;;
74100;SDS011;62462;52.530;21.682;2022-11-27T08:22:30;93.67;;;29.17;;
74100;SDS011;62462;52.530;21.682;2022-11-27T08:24:56;100.32;;;30.75;;
74100;SDS011;62462;52.530;21.682;2022-11-27T08:27:22;95.00;;;29.83;;
74100;SDS011;62462;52.530;21.682;2022-11-27T08:29:48;99.95;;;30.73;;
74100;SDS011;62462;52.530;21.682;2022-11-27T08:32:13;93.93;;;30.67;;
74100;SDS011;62462;52.530;21.682;2022-11-27T08:34:39;95.80;;;30.83;;
74100;SDS011;62462;52.530;21.682;2022-11-27T08:37:05;103.27;;;33.17;;
74100;SDS011;62462;52.530;21.682;2022-11-27T08:39:32;105.00;;;32.80;;
74100;SDS011;62462;52.530;21.682;2022-11-27T08:41:57;100.03;;;30.10;;
74100;SDS011;62462;52.530;21.682;2022-11-27T08:44:23;99.97;;;31.35;;
74100;SDS011;62462;52.530;21.682;2022-11-27T08:46:49;87.85;;;30.80;;
74100;SDS011;62462;52.530;21.682;2022-11-27T08:49:14;97.65;;;31.00;;
74100;SDS011;62462;52.530;21.682;2022-11-27T08:51:40;105.60;;;33.30;;
74100;SDS011;62462;52.530;21.682;2022-11-27T08:54:06;99.20;;;32.83;;
74100;SDS011;62462;52.530;21.682;2022-11-27T08:56:31;103.45;;;32.95;;
74100;SDS011;62462;52.530;21.682;2022-11-27T08:58:57;106.20;;;32.55;;
74100;SDS011;62462;52.530;21.682;2022-11-27T09:01:24;106.45;;;33.35;;
74100;SDS011;62462;52.530;21.682;2022-11-27T09:03:52;111.60;;;33.87;;
74100;SDS011;62462;52.530;21.682;2022-11-27T09:06:19;102.97;;;32.50;;
74100;SDS011;62462;52.530;21.682;2022-11-27T09:08:50;111.60;;;33.77;;
74100;SDS011;62462;52.530;21.682;2022-11-27T09:11:16;103.97;;;32.50;;
74100;SDS011;62462;52.530;21.682;2022-11-27T09:13:43;113.20;;;34.87;;
74100;SDS011;62462;52.530;21.682;2022-11-27T09:16:10;122.97;;;37.08;;
74100;SDS011;62462;52.530;21.682;2022-11-27T09:18:38;103.78;;;32.67;;
74100;SDS011;62462;52.530;21.682;2022-11-27T09:21:05;118.25;;;35.85;;
74100;SDS011;62462;52.530;21.682;2022-11-27T09:23:33;116.32;;;36.30;;
74100;SDS011;62462;52.530;21.682;2022-11-27T09:26:02;120.18;;;36.97;;
74100;SDS011;62462;52.530;21.682;2022-11-27T09:28:29;115.80;;;35.03;;
74100;SDS011;62462;52.530;21.682;2022-11-27T09:30:57;127.50;;;37.05;;
74100;SDS011;62462;52.530;21.682;2022-11-27T09:33:26;121.65;;;35.53;;
74100;SDS011;62462;52.530;21.682;2022-11-27T09:35:52;112.25;;;34.53;;
74100;SDS011;62462;52.530;21.682;2022-11-27T09:38:18;112.15;;;34.80;;
74100;SDS011;62462;52.530;21.682;2022-11-27T09:40:48;117.70;;;35.33;;
74100;SDS011;62462;52.530;21.682;2022-11-27T09:43:19;97.80;;;31.70;;
74100;SDS011;62462;52.530;21.682;2022-11-27T09:48:21;98.70;;;32.43;;
74100;SDS011;62462;52.530;21.682;2022-11-27T09:50:56;110.93;;;33.28;;
74100;SDS011;62462;52.530;21.682;2022-11-27T09:53:32;113.50;;;34.50;;
74100;SDS011;62462;52.530;21.682;2022-11-27T09:56:05;123.25;;;35.20;;
74100;SDS011;62462;52.530;21.682;2022-11-27T09:58:37;116.77;;;35.70;;
74100;SDS011;62462;52.530;21.682;2022-11-27T10:01:16;123.43;;;36.63;;
74100;SDS011;62462;52.530;21.682;2022-11-27T10:03:51;120.27;;;36.67;;
74100;SDS011;62462;52.530;21.682;2022-11-27T10:06:27;122.37;;;37.93;;
74100;SDS011;62462;52.530;21.682;2022-11-27T10:12:13;107.60;;;32.37;;
74100;SDS011;62462;52.530;21.682;2022-11-27T10:20:12;111.10;;;34.95;;
74100;SDS011;62462;52.530;21.682;2022-11-27T10:28:05;117.10;;;35.97;;
74100;SDS011;62462;52.530;21.682;2022-11-27T10:33:22;120.47;;;35.00;;
74100;SDS011;62462;52.530;21.682;2022-11-27T10:35:51;116.67;;;33.97;;
74100;SDS011;62462;52.530;21.682;2022-11-27T10:38:21;133.48;;;38.05;;
74100;SDS011;62462;52.530;21.682;2022-11-27T10:41:05;116.73;;;36.43;;
74100;SDS011;62462;52.530;21.682;2022-11-27T10:43:38;120.40;;;34.23;;
74100;SDS011;62462;52.530;21.682;2022-11-27T10:46:08;124.03;;;35.67;;
74100;SDS011;62462;52.530;21.682;2022-11-27T10:48:39;110.15;;;32.08;;
74100;SDS011;62462;52.530;21.682;2022-11-27T10:51:15;126.00;;;37.37;;
74100;SDS011;62462;52.530;21.682;2022-11-27T10:53:43;115.97;;;34.78;;
74100;SDS011;62462;52.530;21.682;2022-11-27T11:01:50;119.30;;;34.88;;
74100;SDS011;62462;52.530;21.682;2022-11-27T11:04:20;123.05;;;37.50;;
74100;SDS011;62462;52.530;21.682;2022-11-27T11:06:52;118.18;;;35.58;;
74100;SDS011;62462;52.530;21.682;2022-11-27T11:09:22;116.80;;;35.33;;
74100;SDS011;62462;52.530;21.682;2022-11-27T11:11:53;122.82;;;35.50;;
74100;SDS011;62462;52.530;21.682;2022-11-27T11:14:48;116.10;;;33.15;;
74100;SDS011;62462;52.530;21.682;2022-11-27T11:17:25;122.35;;;34.88;;
74100;SDS011;62462;52.530;21.682;2022-11-27T11:19:54;123.38;;;34.63;;
74100;SDS011;62462;52.530;21.682;2022-11-27T11:22:20;115.95;;;33.38;;
74100;SDS011;62462;52.530;21.682;2022-11-27T11:24:47;118.05;;;35.42;;
74100;SDS011;62462;52.530;21.682;2022-11-27T11:27:35;116.97;;;34.47;;
74100;SDS011;62462;52.530;21.682;2022-11-27T11:30:00;136.68;;;36.72;;
74100;SDS011;62462;52.530;21.682;2022-11-27T11:32:28;129.27;;;36.67;;
74100;SDS011;62462;52.530;21.682;2022-11-27T11:35:00;135.38;;;38.00;;
74100;SDS011;62462;52.530;21.682;2022-11-27T11:37:32;142.00;;;38.80;;
74100;SDS011;62462;52.530;21.682;2022-11-27T11:45:50;142.82;;;39.30;;
74100;SDS011;62462;52.530;21.682;2022-11-27T11:48:23;123.45;;;37.20;;
74100;SDS011;62462;52.530;21.682;2022-11-27T11:50:54;150.82;;;39.90;;
74100;SDS011;62462;52.530;21.682;2022-11-27T12:12:50;130.55;;;36.33;;
74100;SDS011;62462;52.530;21.682;2022-11-27T12:21:20;149.93;;;38.78;;
74100;SDS011;62462;52.530;21.682;2022-11-27T12:41:06;172.98;;;45.00;;
74100;SDS011;62462;52.530;21.682;2022-11-27T12:43:55;153.70;;;40.40;;
74100;SDS011;62462;52.530;21.682;2022-11-27T12:52:28;156.68;;;41.17;;
74100;SDS011;62462;52.530;21.682;2022-11-27T12:55:04;162.63;;;42.17;;
74100;SDS011;62462;52.530;21.682;2022-11-27T12:57:39;153.90;;;40.55;;
74100;SDS011;62462;52.530;21.682;2022-11-27T13:00:20;139.00;;;38.38;;
74100;SDS011;62462;52.530;21.682;2022-11-27T13:02:53;164.23;;;39.78;;
74100;SDS011;62462;52.530;21.682;2022-11-27T13:05:40;139.90;;;38.83;;
74100;SDS011;62462;52.530;21.682;2022-11-27T13:08:20;158.88;;;42.00;;
74100;SDS011;62462;52.530;21.682;2022-11-27T13:11:09;155.73;;;42.38;;
74100;SDS011;62462;52.530;21.682;2022-11-27T13:13:40;158.10;;;40.97;;
74100;SDS011;62462;52.530;21.682;2022-11-27T13:16:14;144.38;;;38.35;;
74100;SDS011;62462;52.530;21.682;2022-11-27T13:18:47;145.77;;;39.92;;
74100;SDS011;62462;52.530;21.682;2022-11-27T13:21:25;150.45;;;38.22;;
74100;SDS011;62462;52.530;21.682;2022-11-27T13:23:53;135.40;;;37.50;;
74100;SDS011;62462;52.530;21.682;2022-11-27T13:26:20;160.48;;;40.72;;
74100;SDS011;62462;52.530;21.682;2022-11-27T13:28:55;182.65;;;43.30;;
74100;SDS011;62462;52.530;21.682;2022-11-27T13:31:32;183.07;;;43.70;;
74100;SDS011;62462;52.530;21.682;2022-11-27T13:34:15;144.40;;;39.78;;
74100;SDS011;62462;52.530;21.682;2022-11-27T13:36:44;151.95;;;40.45;;
74100;SDS011;62462;52.530;21.682;2022-11-27T13:42:02;147.80;;;40.38;;
74100;SDS011;62462;52.530;21.682;2022-11-27T13:44:35;165.43;;;41.00;;
74100;SDS011;62462;52.530;21.682;2022-11-27T13:47:07;149.90;;;38.67;;
74100;SDS011;62462;52.530;21.682;2022-11-27T13:49:36;166.38;;;42.50;;
74100;SDS011;62462;52.530;21.682;2022-11-27T13:52:07;153.85;;;40.78;;
74100;SDS011;62462;52.530;21.682;2022-11-27T13:54:35;152.48;;;40.67;;
74100;SDS011;62462;52.530;21.682;2022-11-27T13:57:09;145.10;;;41.65;;
74100;SDS011;62462;52.530;21.682;2022-11-27T13:59:39;141.52;;;40.45;;
74100;SDS011;62462;52.530;21.682;2022-11-27T14:02:05;138.82;;;37.63;;
74100;SDS011;62462;52.530;21.682;2022-11-27T14:04:32;142.93;;;39.45;;
74100;SDS011;62462;52.530;21.682;2022-11-27T14:07:02;154.55;;;43.70;;
74100;SDS011;62462;52.530;21.682;2022-11-27T14:09:43;150.27;;;41.35;;
74100;SDS011;62462;52.530;21.682;2022-11-27T14:12:25;150.32;;;41.67;;
74100;SDS011;62462;52.530;21.682;2022-11-27T14:15:08;154.63;;;43.30;;
74100;SDS011;62462;52.530;21.682;2022-11-27T14:17:44;156.32;;;43.05;;
74100;SDS011;62462;52.530;21.682;2022-11-27T14:22:44;153.50;;;44.15;;
74100;SDS011;62462;52.530;21.682;2022-11-27T14:25:16;155.52;;;43.50;;
74100;SDS011;62462;52.530;21.682;2022-11-27T14:27:45;159.43;;;42.05;;
74100;SDS011;62462;52.530;21.682;2022-11-27T14:33:18;169.10;;;46.65;;
74100;SDS011;62462;52.530;21.682;2022-11-27T14:35:51;202.65;;;56.08;;
74100;SDS011;62462;52.530;21.682;2022-11-27T14:38:21;206.90;;;54.00;;
74100;SDS011;62462;52.530;21.682;2022-11-27T14:40:49;215.70;;;55.22;;
74100;SDS011;62462;52.530;21.682;2022-11-27T14:43:23;205.27;;;49.47;;
74100;SDS011;62462;52.530;21.682;2022-11-27T14:45:53;184.60;;;49.15;;
74100;SDS011;62462;52.530;21.682;2022-11-27T14:48:25;162.40;;;44.67;;
74100;SDS011;62462;52.530;21.682;2022-11-27T14:51:13;144.77;;;40.00;;
74100;SDS011;62462;52.530;21.682;2022-11-27T14:53:46;165.77;;;44.15;;
74100;SDS011;62462;52.530;21.682;2022-11-27T14:56:14;156.13;;;45.03;;
74100;SDS011;62462;52.530;21.682;2022-11-27T14:58:46;150.00;;;43.17;;
74100;SDS011;62462;52.530;21.682;2022-11-27T15:01:27;140.18;;;40.85;;
74100;SDS011;62462;52.530;21.682;2022-11-27T15:03:58;135.70;;;38.13;;
74100;SDS011;62462;52.530;21.682;2022-11-27T15:06:39;130.25;;;38.05;;
74100;SDS011;62462;52.530;21.682;2022-11-27T15:09:18;149.57;;;42.95;;
74100;SDS011;62462;52.530;21.682;2022-11-27T15:12:29;140.80;;;42.72;;
74100;SDS011;62462;52.530;21.682;2022-11-27T15:14:38;166.45;;;47.95;;
74100;SDS011;62462;52.530;21.682;2022-11-27T15:17:15;157.07;;;43.47;;
74100;SDS011;62462;52.530;21.682;2022-11-27T15:19:44;137.07;;;41.83;;
74100;SDS011;62462;52.530;21.682;2022-11-27T15:22:20;150.95;;;41.63;;
74100;SDS011;62462;52.530;21.682;2022-11-27T15:24:46;147.80;;;40.78;;
74100;SDS011;62462;52.530;21.682;2022-11-27T15:27:25;143.93;;;40.80;;
74100;SDS011;62462;52.530;21.682;2022-11-27T15:32:21;134.65;;;38.28;;
74100;SDS011;62462;52.530;21.682;2022-11-27T15:34:48;120.78;;;36.40;;
74100;SDS011;62462;52.530;21.682;2022-11-27T15:37:28;126.57;;;37.38;;
74100;SDS011;62462;52.530;21.682;2022-11-27T15:39:56;122.07;;;37.08;;
74100;SDS011;62462;52.530;21.682;2022-11-27T15:42:23;129.73;;;38.10;;
74100;SDS011;62462;52.530;21.682;2022-11-27T15:44:55;130.35;;;37.78;;
74100;SDS011;62462;52.530;21.682;2022-11-27T15:47:24;136.32;;;36.05;;
74100;SDS011;62462;52.530;21.682;2022-11-27T15:49:50;130.60;;;38.72;;
74100;SDS011;62462;52.530;21.682;2022-11-27T15:52:16;117.45;;;36.40;;
74100;SDS011;62462;52.530;21.682;2022-11-27T15:54:42;126.32;;;36.20;;
74100;SDS011;62462;52.530;21.682;2022-11-27T15:57:08;122.03;;;36.05;;
74100;SDS011;62462;52.530;21.682;2022-11-27T15:59:34;136.45;;;40.17;;
74100;SDS011;62462;52.530;21.682;2022-11-27T16:01:59;125.93;;;37.90;;
74100;SDS011;62462;52.530;21.682;2022-11-27T16:04:25;139.45;;;39.15;;
74100;SDS011;62462;52.530;21.682;2022-11-27T16:06:51;134.18;;;42.10;;
74100;SDS011;62462;52.530;21.682;2022-11-27T16:09:17;130.95;;;43.65;;
74100;SDS011;62462;52.530;21.682;2022-11-27T16:11:42;156.68;;;46.80;;
74100;SDS011;62462;52.530;21.682;2022-11-27T16:14:08;149.90;;;46.15;;
74100;SDS011;62462;52.530;21.682;2022-11-27T16:16:35;148.48;;;48.30;;
74100;SDS011;62462;52.530;21.682;2022-11-27T16:19:01;148.50;;;44.92;;
74100;SDS011;62462;52.530;21.682;2022-11-27T16:21:28;143.10;;;44.13;;
74100;SDS011;62462;52.530;21.682;2022-11-27T16:23:55;131.55;;;41.22;;
74100;SDS011;62462;52.530;21.682;2022-11-27T16:26:22;134.98;;;41.05;;
74100;SDS011;62462;52.530;21.682;2022-11-27T16:28:48;127.75;;;41.17;;
74100;SDS011;62462;52.530;21.682;2022-11-27T16:31:14;125.70;;;40.63;;